Relevés horaires St-Hubert (Belgique)


Relevés horaires à St-Hubert - Jeudi 16 Mai 2019
Heure UTC1 Température [°C] Vent [km/h] Hum. [%] Pres.4 [hPa] Visi. [Km] Nébu. [octa] Préc.5 [mm] Cond.
2m. Res. Ros. Dir.2 Vit. Moy. Raf.3
23:00 7.4 6.1 5.1 ENE 7.4 7.4 11.1 85 1011.1(-1.4/3h) 10 8/8 -- --
22:00 6.3 5.3 4.6 ENE 5.6 7.4 11.1 89 1012.1(-0.9/3h) 15 0/8 -- --
21:00 7.7 6.4 5.2 NE 7.4 9.3 11.1 84 1012.2(-0.7/3h) 24 0/8 -- --
20:00 9.5 9 4.6 NE 5.6 5.6 9.3 71 1012.1(-0.8/3h) 40 1/8 -- --
19:00 11.7 11.7 4.5 N 3.7 7.4 11.1 61 1011.8(-0.9/3h) 45 8/8 -- --
18:00 12.2 12.1 3.3 N 5.6 9.3 16.7 54 1011.9(-1.5/3h) 40 8/8 0/12h
--
17:00 13.3 13 2.8 NNE 7.4 9.3 14.8 49 1012(-1.8/3h) 27 7/8 -- --
16:00 12.9 12.5 2.6 NNE 7.4 9.3 14.8 49 1012.5(-2.1/3h) 35 8/8 -- --
15:00 12.6 12.2 2.4 NNE 7.4 9.3 16.7 50 1013.4(-2.0/3h) 35 1/8 -- --
14:00 12.7 12.3 1.9 NNE 7.4 9.3 14.8 48 1014.1(-1.7/3h) 40 8/8 -- --
13:00 12.6 11.8 2.0 NNE 9.3 9.3 14.8 48 1014.9(-1.6/3h) 30 2/8 -- --
12:00 11.4 11.2 1.4 N 5.6 9.3 16.7 50 1015.8(-1.4/3h) 35 7/8 0/6h
--
11:00 11.8 11.2 1.6 NE 7.4 9.3 16.7 50 1016.2(-1.5/3h) 30 3/8 -- --
10:00 9.9 9.5 -0.5 NE 5.6 9.3 14.8 48 1017.3(-1.2/3h) 40 1/8 -- --
09:00 9.3 8.3 -0.5 ENE 7.4 9.3 14.8 50 1017.8(-1.0/3h) 35 3/8 -- --
08:00 9.2 7.8 0.1 NE 9.3 9.3 14.8 53 1018.4(-0.7/3h) 35 0/8 -- --
07:00 7.0 5.6 -0.7 NE 7.4 7.4 9.3 58 1019.3(-0.6/3h) 35 0/8 -- --
06:00 5.3 4.2 -1.6 NE 5.6 9.3 13.0 61 1019.8(-0.7/3h) 40 0/8 0/12h
--
05:00 3.4 2 -2.5 ENE 5.6 7.4 7.4 65 1020.7(-0.8/3h) 45 0/8 -- --
04:00 1.3 -0.4 -2.0 NE 5.6 5.6 7.4 79 1021.4(-1.1/3h) 45 0/8 -- --
03:00 3.4 3.4 -2.1 ENE 3.7 9.3 13.0 67 1021.1(-1.3/3h) 45 0/8 -- --
02:00 4.4 2.6 -2.5 E 7.4 9.3 13.0 61 1021.2(-1.3/3h) 45 0/8 -- --
01:00 5.0 2.8 -1.1 E 9.3 9.3 13.0 65 1021.6(-1.2/3h) 45 0/8 -- --
00:00 5.4 3.3 -1.4 E 9.3 9.3 14.8 61 1021.9(-1.3/3h) 50 0/8 0/6h
0/24h
--

1 Coordinated Universal Time. Actuellement il est 05:00 locale et 04:00 UTC.

2 Le vent souffle depuis la direction indiquée vers la direction oposée.

3 Les rafales max. sont disponible 40 min après l'heure du relevé.

4 Pour les stations d'altitude (plus de 600m) le géopotentiel du niveau le plus proche de la pression obligatoire est indiqué.

5 Les stations disposant d'un diffuseur peuvent indiquer "trace". Cela signifie que des précipitations ont touchés le sol mais que la quantité est inférieure à 0.1 mm.

Récapitulatif de la journée
Température [°C] Vent [km/h] Ensoleillement4 [h] Precipitations totale5 [mm] Pression [Hpa]
Min1 Max.2 Moy.3 Max. Min Max.
0.9 13.9 8.6 16.7 0 h 0 min 0 1011.1 1021.9

1 Température minimale relevée entre 18:00 UTC la veille et 18:00 UTC le jour donné.

2 Température maximale relevée entre 06:00 UTC le jour donné et 06:00 UTC le lendemain.

3 Vent moyen de la journée basé sur les relevés horaires.

4 Ensoleillement en heures relevé entre 06:00 UTC la veille et 06:00 UTC le jour donné.

5 Précipitations totales tombées entre 06:00 UTC la jour donné et 06:00 UTC le lendemain.

Graphiques horaires